Terminal Aerodrome Forecast
Issued by NWS Sioux Falls, SD

Home | Current Version | Previous Version | Text Only | Print | Product List | Glossary On
Versions: 1 2 3 4 5 6 7 8 9 10 11 12 13 14
000
FTUS43 KFSD 300237 AAA
TAFFSD
TAF AMD
KFSD 300237Z 3003/3024 36015KT P6SM SCT015 SCT045 BKN080
     FM300500 36009KT P6SM SCT200
     FM301600 02012KT P6SM SKC=

USA.gov is the U.S. government's official web portal to all federal, state and local government web resources and services.